Time;durP1;ratioP1;P1;durP2;ratioP2;P2;SDS_P1;SDS_P2;PMS_P1;PMS_P2;Temp;Humidity;BMP_temperature;BMP_pressure;BME280_temperature;BME280_humidity;BME280_pressure;Samples;Min_cycle;Max_cycle;Signal;HPM_P1;HPM_P2
2021/04/29 00:01:55;;;;;;;15.82;11.27;;;;;;;10.66;60.99;99630.56;5026542;28;20083;-79
2021/04/29 00:04:20;;;;;;;17.25;11.85;;;;;;;10.67;60.70;99634.91;5042854;28;20055;-78
2021/04/29 00:06:46;;;;;;;15.40;11.02;;;;;;;10.65;61.28;99635.13;5032108;28;20040;-80
2021/04/29 00:09:11;;;;;;;17.48;10.82;;;;;;;10.70;60.80;99629.16;5043224;28;20121;-79
2021/04/29 00:11:38;;;;;;;15.75;11.35;;;;;;;10.67;60.84;99625.00;5053973;28;20072;-78
2021/04/29 00:14:05;;;;;;;14.63;11.50;;;;;;;10.67;61.03;99622.31;5023770;28;20083;-82
2021/04/29 00:16:31;;;;;;;16.52;11.18;;;;;;;10.67;60.94;99626.88;5022738;28;20045;-79
2021/04/29 00:18:56;;;;;;;17.55;11.32;;;;;;;10.64;60.76;99628.06;5024243;28;20119;-78
2021/04/29 00:21:22;;;;;;;15.40;11.45;;;;;;;10.63;60.95;99625.59;5028484;28;20032;-77
2021/04/29 00:23:47;;;;;;;16.55;11.20;;;;;;;10.64;60.78;99621.88;5049496;28;20045;-80
2021/04/29 00:26:13;;;;;;;14.75;11.25;;;;;;;10.67;60.98;99626.88;5051145;28;20077;-77
2021/04/29 00:28:38;;;;;;;14.88;11.30;;;;;;;10.67;60.99;99622.31;5047316;28;20501;-80
2021/04/29 00:31:04;;;;;;;16.48;11.55;;;;;;;10.69;60.80;99620.28;5048840;28;20040;-76
2021/04/29 00:33:29;;;;;;;13.50;11.27;;;;;;;10.70;60.99;99615.75;5031457;28;20048;-75
2021/04/29 00:35:54;;;;;;;16.42;11.15;;;;;;;10.69;61.06;99611.41;5023068;28;20052;-81
2021/04/29 00:38:22;;;;;;;16.48;11.20;;;;;;;10.72;60.70;99621.75;5020413;28;20387;-78
2021/04/29 00:40:47;;;;;;;15.63;11.30;;;;;;;10.70;61.70;99621.94;5043960;28;20443;-77
2021/04/29 00:43:13;;;;;;;14.27;11.80;;;;;;;10.69;61.56;99622.16;5022995;28;20131;-74
2021/04/29 00:45:39;;;;;;;15.43;11.98;;;;;;;10.68;61.32;99623.19;5020238;28;20033;-73
2021/04/29 00:48:05;;;;;;;17.73;12.15;;;;;;;10.67;61.60;99608.09;5040856;28;20040;-81
2021/04/29 00:50:31;;;;;;;15.13;11.77;;;;;;;10.65;61.50;99610.97;5050486;28;20067;-79
2021/04/29 00:52:56;;;;;;;17.05;11.15;;;;;;;10.60;61.96;99606.19;5026784;28;20041;-79
2021/04/29 00:55:22;;;;;;;13.98;10.98;;;;;;;10.63;62.10;99618.38;5020857;28;20085;-80
2021/04/29 00:57:49;;;;;;;15.93;12.45;;;;;;;10.63;62.10;99615.69;5042679;28;20041;-78
2021/04/29 01:00:15;;;;;;;14.63;11.35;;;;;;;10.64;62.36;99609.28;5045283;28;20051;-77
2021/04/29 01:02:48;;;;;;;17.15;12.00;;;;;;;10.65;62.18;99607.47;5039616;28;20566;-77
2021/04/29 01:05:18;;;;;;;16.83;12.27;;;;;;;10.63;62.66;99609.50;5029541;28;20072;-79
2021/04/29 01:07:51;;;;;;;14.45;11.65;;;;;;;10.60;63.19;99605.34;5042396;28;22327;-77
2021/04/29 01:10:36;;;;;;;15.32;11.93;;;;;;;10.63;62.56;99602.28;5045949;28;20049;-80
2021/04/29 01:13:13;;;;;;;14.75;12.05;;;;;;;10.64;62.82;99597.75;5043907;28;20040;-82
2021/04/29 01:15:42;;;;;;;15.80;12.30;;;;;;;10.56;63.13;99604.91;5012973;28;20107;-79
2021/04/29 01:18:09;;;;;;;15.35;12.18;;;;;;;10.51;64.01;99601.97;5029128;28;20136;-76
2021/04/29 01:20:48;;;;;;;16.77;12.52;;;;;;;10.51;63.83;99595.78;5047566;28;20056;-80
2021/04/29 01:23:19;;;;;;;;;;;;;;;10.47;64.32;99602.53;4966004;28;20375;-80
2021/04/29 01:25:49;;;;;;;16.00;12.07;;;;;;;10.38;63.90;99602.66;5050841;28;20289;-75
2021/04/29 01:28:16;;;;;;;15.75;11.95;;;;;;;10.43;63.56;99596.75;5044413;28;20087;-79
2021/04/29 01:30:43;;;;;;;14.05;11.82;;;;;;;10.48;63.70;99597.00;5041372;28;20049;-77
2021/04/29 01:33:09;;;;;;;15.57;11.77;;;;;;;10.50;63.78;99596.78;5043192;28;20087;-77
2021/04/29 01:35:35;;;;;;;13.57;12.05;;;;;;;10.52;63.51;99602.81;5051816;28;20553;-82
2021/04/29 01:38:01;;;;;;;13.90;10.73;;;;;;;10.52;64.09;99597.44;5047663;28;20134;-82
2021/04/29 01:40:27;;;;;;;13.38;10.93;;;;;;;10.49;64.31;99595.97;5017911;28;20053;-83
2021/04/29 01:42:52;;;;;;;13.65;10.75;;;;;;;10.50;64.03;99594.09;5045607;28;20069;-80
2021/04/29 01:45:18;;;;;;;15.77;11.73;;;;;;;10.60;63.14;99594.63;5047414;28;20044;-79
2021/04/29 01:47:44;;;;;;;14.93;11.32;;;;;;;10.69;63.40;99600.69;5041030;28;20042;-76
2021/04/29 01:50:11;;;;;;;16.75;11.20;;;;;;;10.73;62.88;99592.06;5037959;28;20119;-79
2021/04/29 01:52:38;;;;;;;15.57;11.35;;;;;;;10.69;62.98;99589.94;5028096;28;20128;-77
2021/04/29 01:55:04;;;;;;;13.73;11.15;;;;;;;10.74;62.77;99600.94;5029162;28;20482;-75
2021/04/29 01:57:30;;;;;;;14.10;10.85;;;;;;;10.74;63.03;99592.88;5044081;28;20132;-80
2021/04/29 01:59:55;;;;;;;15.00;11.40;;;;;;;10.80;62.26;99597.47;5042371;28;20132;-76
2021/04/29 02:02:25;;;;;;;14.68;12.00;;;;;;;10.80;62.04;99594.78;5032558;28;20131;-74
2021/04/29 02:04:50;;;;;;;14.43;11.30;;;;;;;10.84;61.64;99604.09;5025270;28;20037;-77
2021/04/29 02:07:17;;;;;;;14.57;10.77;;;;;;;10.81;62.36;99597.25;5022018;28;20393;-79
2021/04/29 02:09:43;;;;;;;15.88;11.32;;;;;;;10.88;61.48;99597.31;5044664;28;20036;-77
2021/04/29 02:12:10;;;;;;;14.20;11.25;;;;;;;10.91;61.71;99593.44;5045790;28;20048;-79
2021/04/29 02:14:48;;;;;;;14.45;11.18;;;;;;;10.91;61.45;99591.56;5043717;28;21036;-79
2021/04/29 02:17:46;;;;;;;15.57;10.98;;;;;;;10.90;62.21;99589.88;5047441;28;20132;-78
2021/04/29 02:20:13;;;;;;;15.90;11.18;;;;;;;10.94;61.94;99585.81;5036251;28;20064;-76
2021/04/29 02:22:41;;;;;;;13.77;11.10;;;;;;;10.97;61.47;99580.03;5046786;28;20208;-80
2021/04/29 02:25:09;;;;;;;15.02;11.20;;;;;;;10.97;62.26;99579.22;5045926;28;20047;-78
2021/04/29 02:27:35;;;;;;;14.63;11.23;;;;;;;10.99;61.59;99582.50;5045783;28;20087;-78
2021/04/29 02:30:04;;;;;;;15.77;10.88;;;;;;;10.92;62.52;99582.47;5048727;28;20123;-76
2021/04/29 02:32:30;;;;;;;;;;;;;;;10.97;61.71;99584.59;5029090;28;20065;-77
2021/04/29 02:34:55;;;;;;;14.65;11.07;;;;;;;10.88;62.31;99586.59;5036273;28;19960;-82
2021/04/29 02:37:21;;;;;;;14.68;11.43;;;;;;;10.89;62.63;99576.69;5044893;28;20037;-76
2021/04/29 02:39:46;;;;;;;14.77;11.75;;;;;;;10.88;62.75;99577.72;5045804;28;20056;-80
2021/04/29 02:42:13;;;;;;;14.63;11.77;;;;;;;10.90;62.77;99570.28;5013655;28;20400;-77
2021/04/29 02:44:38;;;;;;;13.30;11.35;;;;;;;10.84;63.76;99571.88;5048952;28;20033;-79
2021/04/29 02:47:05;;;;;;;14.70;11.35;;;;;;;10.81;63.70;99567.75;5038177;28;20037;-78
2021/04/29 02:49:31;;;;;;;14.70;11.48;;;;;;;10.83;63.93;99568.38;5046164;28;20114;-76
2021/04/29 02:51:58;;;;;;;15.35;12.27;;;;;;;10.80;64.39;99571.47;5046481;28;20037;-79
2021/04/29 02:54:24;;;;;;;15.38;12.75;;;;;;;10.81;64.49;99574.97;5028140;28;20485;-83
2021/04/29 02:56:49;;;;;;;13.57;11.43;;;;;;;10.75;65.49;99565.84;5026321;28;20044;-75
2021/04/29 02:59:15;;;;;;;15.80;11.43;;;;;;;10.79;65.28;99568.97;5027227;28;20456;-77
2021/04/29 03:01:42;;;;;;;13.18;11.27;;;;;;;10.74;66.17;99564.19;5030297;28;20041;-76
2021/04/29 03:04:08;;;;;;;13.30;11.90;;;;;;;10.78;65.37;99562.75;5051232;28;20067;-74
2021/04/29 03:06:35;;;;;;;15.40;11.90;;;;;;;10.77;66.63;99558.44;5030939;28;20025;-80
2021/04/29 03:09:01;;;;;;;13.88;12.40;;;;;;;10.81;66.09;99553.50;5047223;28;20398;-80
2021/04/29 03:11:27;;;;;;;15.88;12.75;;;;;;;10.79;65.70;99551.03;5021621;28;20392;-78
2021/04/29 03:13:53;;;;;;;14.52;12.93;;;;;;;10.73;67.13;99548.28;5053158;28;20132;-77
2021/04/29 03:16:18;;;;;;;14.85;12.10;;;;;;;10.72;67.11;99543.94;5043461;28;20506;-78
2021/04/29 03:18:43;;;;;;;14.52;11.75;;;;;;;10.67;67.80;99535.66;5030451;28;20029;-79
2021/04/29 03:21:11;;;;;;;14.95;12.30;;;;;;;10.69;66.62;99533.59;5026387;28;20102;-76
2021/04/29 03:23:36;;;;;;;15.73;12.75;;;;;;;10.67;67.47;99533.78;5058595;28;20043;-80
2021/04/29 03:26:01;;;;;;;14.70;12.30;;;;;;;10.65;68.08;99535.03;5047556;28;20045;-80
2021/04/29 03:28:27;;;;;;;15.27;12.15;;;;;;;10.64;68.35;99542.22;5034662;28;20503;-77
2021/04/29 03:30:52;;;;;;;14.90;13.30;;;;;;;10.64;67.45;99536.88;5048356;28;20044;-79
2021/04/29 03:33:17;;;;;;;16.17;13.43;;;;;;;10.60;68.29;99536.44;5050821;28;20041;-81
2021/04/29 03:35:43;;;;;;;14.93;13.00;;;;;;;10.59;68.40;99531.28;5031706;28;20048;-75
2021/04/29 03:38:08;;;;;;;14.85;13.25;;;;;;;10.54;68.52;99536.38;5050526;28;20044;-75
2021/04/29 03:40:35;;;;;;;15.57;13.98;;;;;;;10.55;68.27;99530.00;5053478;28;20089;-78
2021/04/29 03:43:00;;;;;;;18.30;13.98;;;;;;;10.45;69.43;99530.34;5056586;28;20041;-76
2021/04/29 03:45:26;;;;;;;15.48;13.38;;;;;;;10.46;68.94;99531.97;5051073;28;20045;-79
2021/04/29 03:47:51;;;;;;;16.02;14.18;;;;;;;10.50;68.80;99527.91;5037720;28;20083;-78
2021/04/29 03:50:17;;;;;;;14.95;13.35;;;;;;;10.49;68.24;99522.72;5049027;28;20040;-80
2021/04/29 03:52:42;;;;;;;17.23;14.20;;;;;;;10.46;68.44;99529.31;5049434;28;20043;-80
2021/04/29 03:55:09;;;;;;;15.23;13.73;;;;;;;10.44;68.51;99530.50;5046271;28;20045;-78
2021/04/29 03:57:34;;;;;;;17.88;14.45;;;;;;;10.43;68.49;99528.88;5055906;28;20044;-77
2021/04/29 04:00:00;;;;;;;18.17;14.32;;;;;;;10.35;68.98;99527.97;5035968;28;20038;-77
2021/04/29 04:02:25;;;;;;;15.32;13.73;;;;;;;10.29;69.47;99525.25;5066111;28;20428;-80
2021/04/29 04:04:50;;;;;;;18.67;14.85;;;;;;;10.27;69.27;99519.22;5031456;28;20040;-78
2021/04/29 04:07:17;;;;;;;15.98;14.20;;;;;;;10.23;69.52;99518.75;5042462;28;20128;-77
2021/04/29 04:09:42;;;;;;;17.10;14.07;;;;;;;10.21;69.54;99512.75;5051060;28;20048;-80
2021/04/29 04:12:08;;;;;;;17.27;14.48;;;;;;;10.21;68.96;99514.63;5028954;28;20045;-76
2021/04/29 04:14:33;;;;;;;18.33;15.38;;;;;;;10.22;68.90;99516.28;5033838;28;20472;-80
2021/04/29 04:16:58;;;;;;;22.60;15.18;;;;;;;10.13;69.31;99516.41;5039580;28;20471;-78
2021/04/29 04:19:24;;;;;;;18.38;16.02;;;;;;;10.09;69.45;99520.50;5049436;28;20094;-77
2021/04/29 04:21:49;;;;;;;18.58;14.32;;;;;;;10.04;69.21;99519.41;5009568;28;20037;-75
2021/04/29 04:24:15;;;;;;;17.73;14.45;;;;;;;10.07;68.68;99514.50;5030279;28;20048;-76
2021/04/29 04:26:40;;;;;;;17.38;14.18;;;;;;;10.02;69.03;99510.75;5033450;28;20037;-76
2021/04/29 04:29:05;;;;;;;18.33;15.07;;;;;;;9.95;69.53;99513.34;5049148;28;20053;-77
2021/04/29 04:31:31;;;;;;;17.52;14.55;;;;;;;9.89;69.27;99520.28;5018346;28;20540;-82
2021/04/29 04:33:56;;;;;;;19.20;14.88;;;;;;;9.94;68.32;99522.41;5047061;28;20326;-75
2021/04/29 04:36:22;;;;;;;19.10;15.82;;;;;;;9.90;68.85;99523.84;5035732;28;20041;-81
2021/04/29 04:38:47;;;;;;;24.02;15.02;;;;;;;9.91;67.89;99523.63;5054986;28;20047;-81
2021/04/29 04:41:13;;;;;;;20.05;15.27;;;;;;;9.89;68.05;99524.84;5032404;28;20413;-79
2021/04/29 04:43:38;;;;;;;18.08;14.13;;;;;;;9.88;67.61;99537.41;5047580;28;20037;-78
2021/04/29 04:46:03;;;;;;;17.20;14.25;;;;;;;9.90;67.74;99529.19;5046570;28;20343;-78
2021/04/29 04:48:29;;;;;;;19.35;15.15;;;;;;;9.92;67.25;99529.81;5049432;28;20033;-82
2021/04/29 04:50:54;;;;;;;18.40;14.80;;;;;;;9.92;67.29;99537.84;5048876;28;20040;-78
2021/04/29 04:53:20;;;;;;;18.23;13.77;;;;;;;9.92;67.42;99540.53;5000574;28;20044;-77
2021/04/29 04:55:48;;;;;;;19.05;14.57;;;;;;;9.99;66.76;99544.13;5051781;28;20048;-80
2021/04/29 04:58:15;;;;;;;17.25;14.32;;;;;;;9.99;66.93;99538.75;5051665;28;20500;-80
2021/04/29 05:00:41;;;;;;;22.35;14.90;;;;;;;9.96;67.51;99544.50;5051637;28;20052;-75
2021/04/29 05:03:06;;;;;;;17.58;14.40;;;;;;;9.94;67.71;99547.34;5054367;28;20392;-76
2021/04/29 05:05:32;;;;;;;17.90;14.18;;;;;;;9.95;67.53;99542.81;5042424;28;20486;-77
2021/04/29 05:08:00;;;;;;;20.05;15.43;;;;;;;9.98;68.13;99547.81;5053503;28;20037;-78
2021/04/29 05:10:26;;;;;;;21.60;14.87;;;;;;;9.93;68.11;99545.72;4998306;28;20548;-77
2021/04/29 05:12:51;;;;;;;18.52;14.35;;;;;;;10.01;67.27;99549.28;5016872;28;20602;-79
2021/04/29 05:15:17;;;;;;;19.70;15.15;;;;;;;10.04;67.24;99555.09;5012470;28;20053;-79
2021/04/29 05:17:43;;;;;;;20.05;15.40;;;;;;;10.01;67.34;99551.94;5022182;28;20045;-76
2021/04/29 05:20:09;;;;;;;19.95;14.98;;;;;;;10.02;67.23;99551.78;5016122;28;20045;-77
2021/04/29 05:22:35;;;;;;;20.58;15.25;;;;;;;10.03;66.15;99553.41;5035557;28;20151;-80
2021/04/29 05:25:00;;;;;;;19.15;15.07;;;;;;;10.02;66.74;99551.78;5041929;28;20128;-77
2021/04/29 05:27:25;;;;;;;18.92;15.07;;;;;;;9.97;67.27;99556.88;5044483;28;20044;-77
2021/04/29 05:29:54;;;;;;;18.33;14.95;;;;;;;10.00;67.98;99553.81;5015663;28;20041;-77
2021/04/29 05:32:19;;;;;;;18.63;15.65;;;;;;;9.99;67.53;99546.81;5013658;28;20434;-82
2021/04/29 05:34:44;;;;;;;20.13;15.38;;;;;;;9.99;67.72;99549.47;5029329;28;20079;-76
2021/04/29 05:37:09;;;;;;;20.75;16.38;;;;;;;9.97;67.96;99545.31;5029848;28;20041;-78
2021/04/29 05:39:35;;;;;;;20.70;15.38;;;;;;;9.98;68.61;99542.44;5046726;28;20110;-81
2021/04/29 05:42:00;;;;;;;21.40;16.42;;;;;;;9.99;68.60;99551.34;5023129;28;20555;-76
2021/04/29 05:44:26;;;;;;;20.15;15.02;;;;;;;9.99;68.83;99543.28;5046460;28;20052;-74
2021/04/29 05:46:51;;;;;;;21.65;16.15;;;;;;;10.05;68.35;99553.25;5024055;28;20037;-76
2021/04/29 05:49:16;;;;;;;18.27;14.77;;;;;;;10.04;67.76;99549.75;5048903;28;20434;-77
2021/04/29 05:51:44;;;;;;;19.55;15.88;;;;;;;10.13;67.87;99551.28;5049685;28;20041;-75
2021/04/29 05:54:09;;;;;;;24.23;16.52;;;;;;;10.08;70.19;99558.22;5045199;28;20064;-81
2021/04/29 05:56:36;;;;;;;26.00;16.52;;;;;;;10.12;71.54;99564.84;5047461;28;20155;-83
2021/04/29 05:59:03;;;;;;;23.08;16.63;;;;;;;10.08;71.45;99561.72;5034940;28;20123;-79
2021/04/29 06:01:28;;;;;;;24.30;16.85;;;;;;;10.07;72.29;99576.16;5047899;28;20718;-78
2021/04/29 06:03:54;;;;;;;23.77;16.30;;;;;;;10.10;72.75;99561.56;5032944;28;20040;-78
2021/04/29 06:06:19;;;;;;;21.05;17.30;;;;;;;10.13;71.00;99575.41;5027982;28;20612;-83
2021/04/29 06:08:44;;;;;;;22.55;15.68;;;;;;;10.11;72.04;99566.72;5043626;28;20059;-85
2021/04/29 06:11:10;;;;;;;25.02;16.20;;;;;;;10.13;69.92;99570.03;5030639;28;20045;-79
2021/04/29 06:13:35;;;;;;;26.45;15.98;;;;;;;10.17;70.13;99563.25;5030784;28;20095;-74
2021/04/29 06:16:01;;;;;;;26.00;17.73;;;;;;;10.29;70.17;99565.47;5047816;28;20040;-80
2021/04/29 06:18:26;;;;;;;30.27;17.92;;;;;;;10.30;70.49;99564.44;5048628;28;20516;-79
2021/04/29 06:20:52;;;;;;;26.00;17.05;;;;;;;10.37;69.16;99565.34;5045309;28;20045;-85
2021/04/29 06:23:17;;;;;;;22.23;16.08;;;;;;;10.44;69.44;99558.16;5044757;28;20075;-76
2021/04/29 06:25:42;;;;;;;22.27;14.98;;;;;;;10.56;69.28;99562.00;5041761;28;20103;-80
2021/04/29 06:28:08;;;;;;;20.75;14.43;;;;;;;10.54;67.67;99549.81;5051042;28;20127;-81
2021/04/29 06:30:34;;;;;;;21.65;16.15;;;;;;;10.61;68.33;99564.06;5038310;28;20095;-80
2021/04/29 06:33:00;;;;;;;19.88;15.10;;;;;;;10.73;67.45;99559.88;5038645;28;20500;-83
2021/04/29 06:35:27;;;;;;;19.40;16.52;;;;;;;10.76;67.67;99572.03;5051833;28;20233;-84
2021/04/29 06:37:52;;;;;;;20.33;15.35;;;;;;;10.87;67.71;99568.81;4993912;28;20033;-77
2021/04/29 06:40:19;;;;;;;22.92;17.20;;;;;;;10.89;67.75;99572.13;5033006;28;20482;-77
2021/04/29 06:42:46;;;;;;;20.33;15.35;;;;;;;10.78;69.11;99580.72;5051242;28;20052;-83
2021/04/29 06:45:12;;;;;;;23.88;17.80;;;;;;;10.89;68.55;99580.19;5044817;28;20063;-77
2021/04/29 06:47:38;;;;;;;24.02;18.45;;;;;;;10.83;71.37;99571.06;5040600;28;20448;-83
2021/04/29 06:50:03;;;;;;;23.13;20.42;;;;;;;10.66;74.06;99595.69;5048316;28;20116;-78
2021/04/29 06:52:29;;;;;;;26.17;20.52;;;;;;;10.47;77.55;99584.63;5036521;28;20051;-75
2021/04/29 06:54:54;;;;;;;28.80;21.67;;;;;;;10.32;79.29;99594.56;5022972;28;20516;-80
2021/04/29 06:57:19;;;;;;;28.35;23.85;;;;;;;10.17;79.25;99603.47;5004307;28;20045;-81
2021/04/29 06:59:45;;;;;;;29.52;24.30;;;;;;;10.06;79.56;99609.31;5031641;28;20442;-77
2021/04/29 07:02:10;;;;;;;32.58;22.77;;;;;;;9.89;82.46;99603.38;5039784;28;20044;-79
2021/04/29 07:04:36;;;;;;;28.73;23.02;;;;;;;9.81;82.15;99606.19;5051703;28;20485;-79
2021/04/29 07:07:02;;;;;;;29.00;21.95;;;;;;;9.74;83.35;99609.78;5051346;28;20036;-81
2021/04/29 07:09:27;;;;;;;31.25;23.77;;;;;;;9.74;81.87;99625.88;5052121;28;20045;-79
2021/04/29 07:11:54;;;;;;;32.05;25.10;;;;;;;9.69;83.17;99608.47;5035555;28;20119;-75
2021/04/29 07:14:20;;;;;;;31.45;22.73;;;;;;;9.63;83.34;99614.59;5050849;28;20374;-77
2021/04/29 07:16:46;;;;;;;32.97;24.10;;;;;;;9.61;82.41;99616.66;5049293;28;20064;-81
2021/04/29 07:19:11;;;;;;;31.67;22.45;;;;;;;9.41;84.25;99631.63;5025918;28;20079;-76
2021/04/29 07:21:36;;;;;;;33.25;22.65;;;;;;;9.43;84.46;99641.09;5048393;28;20472;-78
2021/04/29 07:24:02;;;;;;;31.55;23.90;;;;;;;9.45;83.91;99640.94;5018616;28;20037;-80
2021/04/29 07:26:28;;;;;;;33.53;23.23;;;;;;;9.56;83.89;99628.94;5016051;28;20065;-84
2021/04/29 07:28:53;;;;;;;29.27;24.20;;;;;;;9.61;82.52;99631.88;5031478;28;20033;-85
2021/04/29 07:31:18;;;;;;;31.33;23.60;;;;;;;9.60;82.85;99639.06;5026511;28;20049;-79
2021/04/29 07:33:44;;;;;;;29.13;22.58;;;;;;;9.76;81.29;99639.91;5039155;28;20107;-81
2021/04/29 07:36:09;;;;;;;29.40;21.80;;;;;;;9.63;81.39;99637.88;5025718;28;20053;-76
2021/04/29 07:38:35;;;;;;;29.80;21.50;;;;;;;9.75;81.56;99639.06;5046944;28;20437;-74
2021/04/29 07:41:01;;;;;;;32.10;23.58;;;;;;;9.81;80.32;99646.38;5048562;28;20036;-77
2021/04/29 07:43:26;;;;;;;31.10;22.95;;;;;;;9.68;80.12;99644.34;5029575;28;20037;-83
2021/04/29 07:45:52;;;;;;;29.30;23.48;;;;;;;9.80;79.14;99646.53;5049173;28;20393;-81
2021/04/29 07:48:17;;;;;;;28.77;22.20;;;;;;;9.68;79.63;99647.00;5017776;28;20041;-81
2021/04/29 07:50:43;;;;;;;31.10;21.55;;;;;;;9.69;79.87;99640.63;5052177;28;20509;-79
2021/04/29 07:53:08;;;;;;;28.83;20.90;;;;;;;9.66;80.10;99656.25;5052839;28;20037;-79
2021/04/29 07:55:35;;;;;;;28.70;22.50;;;;;;;9.74;79.88;99658.00;5053407;28;20067;-79
2021/04/29 07:58:01;;;;;;;28.65;22.08;;;;;;;9.91;78.70;99657.59;5024717;28;20079;-75
2021/04/29 08:00:26;;;;;;;28.95;20.60;;;;;;;9.86;79.67;99661.88;5027970;28;20405;-83
2021/04/29 08:02:52;;;;;;;28.20;20.83;;;;;;;10.01;77.99;99668.06;5047254;28;20044;-80
2021/04/29 08:05:18;;;;;;;25.67;20.40;;;;;;;10.08;78.88;99666.25;5026888;28;20048;-81
2021/04/29 08:07:43;;;;;;;26.77;20.13;;;;;;;9.99;77.19;99667.41;5049735;28;20044;-78
2021/04/29 08:10:10;;;;;;;28.15;20.20;;;;;;;10.02;77.89;99667.03;5049718;28;20037;-80
2021/04/29 08:12:36;;;;;;;27.75;19.27;;;;;;;9.86;78.36;99672.59;5048206;28;20210;-80
2021/04/29 08:15:03;;;;;;;26.92;20.63;;;;;;;10.06;77.71;99675.50;5026169;28;20049;-79
2021/04/29 08:17:28;;;;;;;27.35;20.70;;;;;;;10.04;78.07;99678.41;5050246;28;20037;-83
2021/04/29 08:19:55;;;;;;;28.70;22.10;;;;;;;9.99;77.02;99675.44;5044189;28;20044;-78
2021/04/29 08:22:22;;;;;;;29.10;20.42;;;;;;;10.00;77.59;99689.66;5031226;28;20127;-78
2021/04/29 08:24:48;;;;;;;25.65;21.05;;;;;;;10.15;77.08;99691.28;5049012;28;20049;-79
2021/04/29 08:27:13;;;;;;;29.25;20.52;;;;;;;10.08;76.71;99695.75;5046764;28;20393;-79
2021/04/29 08:29:39;;;;;;;29.75;22.15;;;;;;;10.17;76.10;99685.75;5046884;28;20147;-77
2021/04/29 08:32:05;;;;;;;25.60;19.63;;;;;;;9.95;76.86;99703.63;5030210;28;20429;-86
2021/04/29 08:34:30;;;;;;;27.85;22.02;;;;;;;9.83;77.59;99702.44;5027436;28;20072;-83
2021/04/29 08:36:55;;;;;;;30.27;22.17;;;;;;;10.07;76.61;99702.16;5051850;28;20124;-80
2021/04/29 08:39:22;;;;;;;30.67;21.27;;;;;;;10.00;77.01;99700.38;5042310;28;20382;-78
2021/04/29 08:41:47;;;;;;;26.98;21.48;;;;;;;10.09;76.66;99700.09;5024622;28;20481;-81
2021/04/29 08:44:12;;;;;;;27.80;20.20;;;;;;;10.09;76.37;99702.75;5038969;28;20044;-84
2021/04/29 08:46:38;;;;;;;28.92;22.08;;;;;;;10.10;76.41;99704.44;5052132;28;20524;-82
2021/04/29 08:49:04;;;;;;;25.90;19.95;;;;;;;10.13;76.49;99701.38;5031574;28;20053;-80
2021/04/29 08:51:30;;;;;;;27.17;21.25;;;;;;;10.07;76.30;99707.50;5015855;28;20168;-81
2021/04/29 08:53:56;;;;;;;27.92;20.58;;;;;;;10.06;77.44;99708.50;5020939;28;20410;-80
2021/04/29 08:56:25;;;;;;;27.00;21.13;;;;;;;10.07;76.64;99718.22;5027264;28;20178;-77
2021/04/29 08:58:54;;;;;;;27.33;22.60;;;;;;;10.17;76.96;99726.78;5014447;28;20088;-74
2021/04/29 09:01:20;;;;;;;30.92;20.17;;;;;;;10.14;76.19;99729.03;5013525;28;20094;-80
2021/04/29 09:03:46;;;;;;;28.25;20.73;;;;;;;10.31;75.95;99725.13;5025954;28;20037;-77
2021/04/29 09:06:12;;;;;;;25.02;20.08;;;;;;;10.33;75.91;99735.69;5029168;28;20433;-80
2021/04/29 09:08:38;;;;;;;27.58;20.85;;;;;;;10.20;75.33;99730.94;5046270;28;20044;-79
2021/04/29 09:11:10;;;;;;;26.15;21.00;;;;;;;10.10;76.09;99735.78;5052994;28;20047;-80
2021/04/29 09:13:36;;;;;;;28.23;20.92;;;;;;;10.19;76.20;99741.88;5022931;28;20082;-76
2021/04/29 09:16:19;;;;;;;28.80;20.63;;;;;;;10.07;76.39;99741.50;5027040;28;20073;-78
2021/04/29 09:18:44;;;;;;;30.00;21.05;;;;;;;10.07;76.85;99745.03;5030860;28;20037;-78
2021/04/29 09:21:15;;;;;;;29.75;21.02;;;;;;;10.22;76.02;99736.13;5029045;28;20037;-76
2021/04/29 09:23:46;;;;;;;28.38;21.98;;;;;;;10.40;75.78;99744.63;5046937;28;20039;-80
2021/04/29 09:26:14;;;;;;;29.58;20.95;;;;;;;10.46;75.38;99743.03;5044355;28;20044;-84
2021/04/29 09:28:47;;;;;;;30.17;20.40;;;;;;;10.41;75.27;99754.31;5048627;28;20041;-81
2021/04/29 09:31:14;;;;;;;29.35;22.05;;;;;;;10.32;75.48;99752.78;5046710;28;20049;-78
2021/04/29 09:33:42;;;;;;;28.95;23.35;;;;;;;10.35;75.91;99753.22;5052168;28;20457;-80
2021/04/29 09:36:20;;;;;;;29.13;21.67;;;;;;;10.34;75.83;99756.13;5030725;28;22626;-81
2021/04/29 09:38:54;;;;;;;28.30;20.58;;;;;;;10.44;75.36;99756.63;5046865;28;20493;-83
2021/04/29 09:41:33;;;;;;;26.38;22.75;;;;;;;10.38;75.70;99752.03;5028227;28;20071;-78
2021/04/29 09:44:02;;;;;;;27.67;21.52;;;;;;;10.35;75.66;99752.41;5040460;28;20091;-76
2021/04/29 09:47:02;;;;;;;27.10;21.83;;;;;;;10.41;75.58;99762.38;5049726;28;20430;-79
2021/04/29 09:49:35;;;;;;;30.38;23.60;;;;;;;10.42;75.02;99761.38;5028119;28;20041;-82
2021/04/29 09:52:16;;;;;;;31.10;24.08;;;;;;;10.48;74.72;99757.94;5048501;28;20400;-81
2021/04/29 09:54:43;;;;;;;29.38;22.05;;;;;;;10.45;75.03;99758.31;5047506;28;20052;-80
2021/04/29 09:57:16;;;;;;;30.27;20.70;;;;;;;10.36;75.51;99754.91;5013455;28;20037;-82
2021/04/29 09:59:43;;;;;;;34.42;24.83;;;;;;;10.33;75.13;99773.22;5032747;28;20548;-81
2021/04/29 10:02:11;;;;;;;37.22;25.05;;;;;;;10.34;75.20;99759.63;5046660;28;20044;-81
2021/04/29 10:04:39;;;;;;;30.95;22.52;;;;;;;10.35;75.84;99763.13;5050264;28;20045;-81
2021/04/29 10:07:06;;;;;;;31.47;22.43;;;;;;;10.24;75.71;99760.88;5034076;28;20485;-78
2021/04/29 10:09:33;;;;;;;32.92;23.25;;;;;;;10.23;75.65;99761.91;5031223;28;20547;-80
2021/04/29 10:12:10;;;;;;;33.35;24.65;;;;;;;10.17;75.71;99767.00;5047882;28;20036;-76
2021/04/29 10:14:50;;;;;;;29.90;23.33;;;;;;;10.13;75.86;99767.59;5046815;28;20588;-77
2021/04/29 10:17:20;;;;;;;32.28;23.02;;;;;;;10.14;76.26;99782.63;5050441;28;20053;-85
2021/04/29 10:19:46;;;;;;;36.63;22.35;;;;;;;10.12;76.13;99768.56;5031638;28;20064;-81
2021/04/29 10:22:13;;;;;;;33.38;25.10;;;;;;;10.23;75.50;99772.66;5023454;28;20552;-80
2021/04/29 10:24:44;;;;;;;32.25;24.67;;;;;;;10.38;75.66;99765.44;5047663;28;20049;-77
2021/04/29 10:27:11;;;;;;;32.78;23.15;;;;;;;10.49;74.84;99764.13;5028117;28;20041;-78
2021/04/29 10:29:39;;;;;;;34.17;24.73;;;;;;;10.54;74.43;99761.72;5029839;28;20405;-79
2021/04/29 10:32:09;;;;;;;32.10;22.63;;;;;;;10.56;73.78;99760.50;5040979;28;20045;-83
2021/04/29 10:34:39;;;;;;;32.95;22.88;;;;;;;10.61;73.55;99760.75;5027502;28;20379;-80
2021/04/29 10:37:24;;;;;;;32.15;23.75;;;;;;;10.67;72.70;99766.38;5045546;28;20060;-78
2021/04/29 10:39:50;;;;;;;32.00;22.95;;;;;;;10.77;72.06;99751.63;5024478;28;20063;-83
2021/04/29 10:42:16;;;;;;;30.92;22.77;;;;;;;10.86;71.44;99760.41;5051954;28;20045;-80
2021/04/29 10:44:50;;;;;;;31.38;23.27;;;;;;;10.85;71.25;99764.13;5051187;28;20112;-82
2021/04/29 10:47:27;;;;;;;30.05;22.98;;;;;;;10.74;70.93;99769.97;5030031;28;20119;-79
2021/04/29 10:50:06;;;;;;;30.75;22.90;;;;;;;10.87;70.77;99774.66;5048385;28;20041;-80
2021/04/29 10:52:32;;;;;;;32.42;23.55;;;;;;;10.89;70.38;99773.44;5002387;28;20095;-77
2021/04/29 10:54:57;;;;;;;34.90;24.10;;;;;;;10.83;70.43;99777.72;5046593;28;20041;-76
2021/04/29 10:57:24;;;;;;;28.98;21.08;;;;;;;10.70;71.58;99755.25;5046640;28;20047;-84
2021/04/29 10:59:52;;;;;;;33.60;22.55;;;;;;;10.54;72.35;99765.22;5029797;28;20048;-77
2021/04/29 11:02:24;;;;;;;31.98;22.63;;;;;;;10.47;72.86;99766.16;5052011;28;20040;-81
2021/04/29 11:04:53;;;;;;;32.25;23.75;;;;;;;10.54;73.11;99777.81;5032938;28;20083;-80
2021/04/29 11:07:20;;;;;;;33.83;22.45;;;;;;;10.51;73.24;99767.47;5026571;28;20048;-85
2021/04/29 11:10:10;;;;;;;34.65;26.58;;;;;;;10.49;73.54;99778.34;5046782;28;20087;-76
2021/04/29 11:12:43;;;;;;;33.83;24.80;;;;;;;10.44;73.88;99796.88;5046072;28;20051;-79
2021/04/29 11:15:20;;;;;;;32.80;22.58;;;;;;;10.37;74.04;99785.22;5046862;28;20136;-80
2021/04/29 11:17:45;;;;;;;35.10;24.83;;;;;;;10.36;74.86;99791.63;5049990;28;20429;-80
2021/04/29 11:20:11;;;;;;;32.10;23.65;;;;;;;10.38;74.27;99801.13;5040545;28;20044;-82